Archival Weather

Aeroparque Jorge Newbery

Buenos Aires, Argentina (SABE)

Report from: Sunday, March 19, 2023 3:00 AM -03
Current time: Wednesday, May 29, 2024 6:22 AM -03

Current weather – Weather history – Daily summaries
Weather forecast

Temperature25.0°C (77.0°F)
Dew point22.0°C (71.6°F)
Winds 5 kts (2.6 m/s, 5.8 mph) East-Northeast (60°)
Visibility6.2 mi. (10 km)
Clouds Few clouds 1,300 ft. (396 m)
Scattered clouds 6,000 ft. (1,829 m)
Altimeter29.88 in.Hg (1012 mB)
Relative humidity83 %
Density altitude1,556 ft. (474 m)
Remarks No significant changes expected in the next two hours
Flight conditions Visual Meteorological Conditions
Raw dataSABE 190600Z 06005KT 9999 FEW013 SCT060 25/22 Q1012 NOSIG RMK PP000
An error has occurred. This application may no longer respond until reloaded. Reload 🗙